sensor_id;sensor_type;location;lat;lon;timestamp;pressure;altitude;pressure_sealevel;temperature;humidity
55044;BME280;54902;50.420;18.854;2023-03-03T00:00:15;101631.82;;;0.08;66.67
55044;BME280;54902;50.420;18.854;2023-03-03T00:00:46;101633.65;;;0.08;66.69
55044;BME280;54902;50.420;18.854;2023-03-03T00:01:18;101630.95;;;0.08;66.69
55044;BME280;54902;50.420;18.854;2023-03-03T00:01:49;101626.50;;;0.07;66.70
55044;BME280;54902;50.420;18.854;2023-03-03T00:02:20;101624.73;;;0.06;66.68
55044;BME280;54902;50.420;18.854;2023-03-03T00:02:50;101622.05;;;0.06;66.69
55044;BME280;54902;50.420;18.854;2023-03-03T00:03:23;101628.34;;;0.05;66.69
55044;BME280;54902;50.420;18.854;2023-03-03T00:03:55;101628.34;;;0.05;66.67
55044;BME280;54902;50.420;18.854;2023-03-03T00:04:26;101622.96;;;0.05;66.68
55044;BME280;54902;50.420;18.854;2023-03-03T00:04:57;101625.70;;;0.03;66.67
55044;BME280;54902;50.420;18.854;2023-03-03T00:05:31;101625.70;;;0.03;66.64
55044;BME280;54902;50.420;18.854;2023-03-03T00:06:03;101628.42;;;0.02;66.66
55044;BME280;54902;50.420;18.854;2023-03-03T00:06:35;101621.29;;;0.01;66.65
55044;BME280;54902;50.420;18.854;2023-03-03T00:07:05;101627.61;;;0.00;66.63
55044;BME280;54902;50.420;18.854;2023-03-03T00:07:36;101626.70;;;-0.01;66.63
55044;BME280;54902;50.420;18.854;2023-03-03T00:08:08;101636.58;;;-0.01;66.64
55044;BME280;54902;50.420;18.854;2023-03-03T00:08:40;101627.61;;;-0.02;66.65
55044;BME280;54902;50.420;18.854;2023-03-03T00:09:11;101624.98;;;-0.03;66.63
55044;BME280;54902;50.420;18.854;2023-03-03T00:09:42;101623.21;;;-0.04;66.62
55044;BME280;54902;50.420;18.854;2023-03-03T00:10:13;101622.34;;;-0.04;66.62
55044;BME280;54902;50.420;18.854;2023-03-03T00:10:44;101625.95;;;-0.05;66.63
55044;BME280;54902;50.420;18.854;2023-03-03T00:11:15;101617.93;;;-0.07;66.64
55044;BME280;54902;50.420;18.854;2023-03-03T00:11:49;101619.76;;;-0.07;66.65
55044;BME280;54902;50.420;18.854;2023-03-03T00:12:29;101622.44;;;-0.07;66.66
55044;BME280;54902;50.420;18.854;2023-03-03T00:13:00;101625.17;;;-0.09;66.66
55044;BME280;54902;50.420;18.854;2023-03-03T00:13:34;101623.41;;;-0.10;66.66
55044;BME280;54902;50.420;18.854;2023-03-03T00:14:21;101622.53;;;-0.10;66.66
55044;BME280;54902;50.420;18.854;2023-03-03T00:14:50;101621.68;;;-0.12;66.66
55044;BME280;54902;50.420;18.854;2023-03-03T00:15:23;101628.87;;;-0.13;66.66
55044;BME280;54902;50.420;18.854;2023-03-03T00:16:37;101619.95;;;-0.15;66.69
55044;BME280;54902;50.420;18.854;2023-03-03T00:17:51;101618.23;;;-0.17;66.69
55044;BME280;54902;50.420;18.854;2023-03-03T00:18:30;101612.00;;;-0.18;66.71
55044;BME280;54902;50.420;18.854;2023-03-03T00:19:45;101619.20;;;-0.20;66.73
55044;BME280;54902;50.420;18.854;2023-03-03T00:21:00;101616.59;;;-0.23;66.72
55044;BME280;54902;50.420;18.854;2023-03-03T00:21:40;101625.52;;;-0.22;66.76
55044;BME280;54902;50.420;18.854;2023-03-03T00:23:39;101622.06;;;-0.26;66.75
55044;BME280;54902;50.420;18.854;2023-03-03T00:24:54;101625.66;;;-0.27;66.75
55044;BME280;54902;50.420;18.854;2023-03-03T00:25:32;101631.03;;;-0.27;66.77
55044;BME280;54902;50.420;18.854;2023-03-03T00:26:55;101624.81;;;-0.29;66.75
55044;BME280;54902;50.420;18.854;2023-03-03T00:27:29;101625.75;;;-0.30;66.79
55044;BME280;54902;50.420;18.854;2023-03-03T00:28:47;101625.80;;;-0.31;66.78
55044;BME280;54902;50.420;18.854;2023-03-03T00:30:02;101622.21;;;-0.32;66.78
55044;BME280;54902;50.420;18.854;2023-03-03T00:30:33;101624.06;;;-0.34;66.82
55044;BME280;54902;50.420;18.854;2023-03-03T00:31:46;101621.39;;;-0.34;66.83
55044;BME280;54902;50.420;18.854;2023-03-03T00:32:22;101623.17;;;-0.34;66.82
55044;BME280;54902;50.420;18.854;2023-03-03T00:32:54;101616.94;;;-0.35;66.81
55044;BME280;54902;50.420;18.854;2023-03-03T00:33:31;101626.80;;;-0.37;66.81
55044;BME280;54902;50.420;18.854;2023-03-03T00:34:45;101625.08;;;-0.38;66.80
55044;BME280;54902;50.420;18.854;2023-03-03T00:36:42;101625.98;;;-0.39;66.80
55044;BME280;54902;50.420;18.854;2023-03-03T00:36:52;101628.63;;;-0.37;66.81
55044;BME280;54902;50.420;18.854;2023-03-03T00:37:59;101624.22;;;-0.40;66.79
55044;BME280;54902;50.420;18.854;2023-03-03T00:38:34;101618.90;;;-0.41;66.80
55044;BME280;54902;50.420;18.854;2023-03-03T00:39:48;101627.81;;;-0.41;66.82
55044;BME280;54902;50.420;18.854;2023-03-03T00:40:24;101626.98;;;-0.43;66.82
55044;BME280;54902;50.420;18.854;2023-03-03T00:40:57;101629.67;;;-0.43;66.84
55044;BME280;54902;50.420;18.854;2023-03-03T00:41:28;101621.66;;;-0.44;66.84
55044;BME280;54902;50.420;18.854;2023-03-03T00:41:59;101626.13;;;-0.45;66.86
55044;BME280;54902;50.420;18.854;2023-03-03T00:42:33;101631.50;;;-0.45;66.88
55044;BME280;54902;50.420;18.854;2023-03-03T00:43:49;101629.76;;;-0.46;66.93
55044;BME280;54902;50.420;18.854;2023-03-03T00:45:17;101628.00;;;-0.47;67.00
55044;BME280;54902;50.420;18.854;2023-03-03T00:45:53;101630.72;;;-0.48;67.04
55044;BME280;54902;50.420;18.854;2023-03-03T00:46:25;101632.45;;;-0.47;67.07
55044;BME280;54902;50.420;18.854;2023-03-03T00:46:57;101630.72;;;-0.48;67.08
55044;BME280;54902;50.420;18.854;2023-03-03T00:47:36;101636.13;;;-0.50;67.13
55044;BME280;54902;50.420;18.854;2023-03-03T00:48:18;101628.09;;;-0.50;67.14
55044;BME280;54902;50.420;18.854;2023-03-03T00:48:51;101621.81;;;-0.50;67.17
55044;BME280;54902;50.420;18.854;2023-03-03T00:49:25;101632.55;;;-0.50;67.19
55044;BME280;54902;50.420;18.854;2023-03-03T00:50:42;101629.91;;;-0.52;67.21
55044;BME280;54902;50.420;18.854;2023-03-03T00:51:27;101627.27;;;-0.53;67.20
55044;BME280;54902;50.420;18.854;2023-03-03T00:51:59;101637.99;;;-0.53;67.20
55044;BME280;54902;50.420;18.854;2023-03-03T00:52:38;101632.63;;;-0.53;67.19
55044;BME280;54902;50.420;18.854;2023-03-03T00:53:14;101624.63;;;-0.55;67.18
55044;BME280;54902;50.420;18.854;2023-03-03T00:53:49;101634.41;;;-0.54;67.20
55044;BME280;54902;50.420;18.854;2023-03-03T00:54:20;101629.99;;;-0.55;67.19
55044;BME280;54902;50.420;18.854;2023-03-03T00:54:51;101629.99;;;-0.55;67.19
55044;BME280;54902;50.420;18.854;2023-03-03T00:55:22;101629.99;;;-0.55;67.19
55044;BME280;54902;50.420;18.854;2023-03-03T00:55:54;101628.23;;;-0.56;67.18
55044;BME280;54902;50.420;18.854;2023-03-03T00:56:26;101627.36;;;-0.56;67.18
55044;BME280;54902;50.420;18.854;2023-03-03T00:56:57;101619.32;;;-0.58;67.18
55044;BME280;54902;50.420;18.854;2023-03-03T00:57:28;101626.45;;;-0.57;67.20
55044;BME280;54902;50.420;18.854;2023-03-03T00:57:59;101622.00;;;-0.58;67.20
55044;BME280;54902;50.420;18.854;2023-03-03T00:58:30;101617.54;;;-0.57;67.20
55044;BME280;54902;50.420;18.854;2023-03-03T00:59:01;101618.45;;;-0.58;67.20
55044;BME280;54902;50.420;18.854;2023-03-03T00:59:31;101620.22;;;-0.57;67.20
55044;BME280;54902;50.420;18.854;2023-03-03T01:00:04;101616.67;;;-0.59;67.17
55044;BME280;54902;50.420;18.854;2023-03-03T01:00:35;101613.08;;;-0.58;67.15
55044;BME280;54902;50.420;18.854;2023-03-03T01:01:07;101611.32;;;-0.59;67.14
55044;BME280;54902;50.420;18.854;2023-03-03T01:01:38;101611.32;;;-0.59;67.14
55044;BME280;54902;50.420;18.854;2023-03-03T01:02:10;101605.09;;;-0.59;67.13
55044;BME280;54902;50.420;18.854;2023-03-03T01:02:41;101621.18;;;-0.59;67.13
55044;BME280;54902;50.420;18.854;2023-03-03T01:03:19;101613.18;;;-0.61;67.13
55044;BME280;54902;50.420;18.854;2023-03-03T01:03:51;101606.91;;;-0.61;67.12
55044;BME280;54902;50.420;18.854;2023-03-03T01:04:22;101617.63;;;-0.61;67.11
55044;BME280;54902;50.420;18.854;2023-03-03T01:04:53;101617.63;;;-0.61;67.11
55044;BME280;54902;50.420;18.854;2023-03-03T01:05:27;101614.95;;;-0.61;67.10
55044;BME280;54902;50.420;18.854;2023-03-03T01:05:58;101607.87;;;-0.64;67.11
55044;BME280;54902;50.420;18.854;2023-03-03T01:06:29;101612.36;;;-0.64;67.11
55044;BME280;54902;50.420;18.854;2023-03-03T01:06:59;101606.13;;;-0.65;67.11
55044;BME280;54902;50.420;18.854;2023-03-03T01:07:30;101608.85;;;-0.66;67.11
55044;BME280;54902;50.420;18.854;2023-03-03T01:08:02;101611.48;;;-0.65;67.09
55044;BME280;54902;50.420;18.854;2023-03-03T01:08:33;101616.00;;;-0.67;67.10
55044;BME280;54902;50.420;18.854;2023-03-03T01:09:04;101606.17;;;-0.68;67.10
55044;BME280;54902;50.420;18.854;2023-03-03T01:09:35;101604.40;;;-0.67;67.09
55044;BME280;54902;50.420;18.854;2023-03-03T01:10:06;101616.08;;;-0.70;67.09
55044;BME280;54902;50.420;18.854;2023-03-03T01:10:52;101607.17;;;-0.70;67.10
55044;BME280;54902;50.420;18.854;2023-03-03T01:11:24;101618.80;;;-0.71;67.07
55044;BME280;54902;50.420;18.854;2023-03-03T01:11:56;101606.31;;;-0.72;67.04
55044;BME280;54902;50.420;18.854;2023-03-03T01:12:27;101609.90;;;-0.73;67.06
55044;BME280;54902;50.420;18.854;2023-03-03T01:12:58;101608.16;;;-0.74;67.06
55044;BME280;54902;50.420;18.854;2023-03-03T01:13:32;101603.73;;;-0.75;67.06
55044;BME280;54902;50.420;18.854;2023-03-03T01:14:04;101601.13;;;-0.80;67.05
55044;BME280;54902;50.420;18.854;2023-03-03T01:14:35;101606.40;;;-0.75;67.05
55044;BME280;54902;50.420;18.854;2023-03-03T01:15:08;101598.41;;;-0.78;67.05
55044;BME280;54902;50.420;18.854;2023-03-03T01:15:40;101605.63;;;-0.80;67.05
55044;BME280;54902;50.420;18.854;2023-03-03T01:16:10;101601.13;;;-0.80;67.05
55044;BME280;54902;50.420;18.854;2023-03-03T01:16:41;101610.99;;;-0.80;67.03
55044;BME280;54902;50.420;18.854;2023-03-03T01:17:12;101609.22;;;-0.81;67.04
55044;BME280;54902;50.420;18.854;2023-03-03T01:17:43;101603.90;;;-0.83;67.05
55044;BME280;54902;50.420;18.854;2023-03-03T01:18:15;101607.45;;;-0.82;67.05
55044;BME280;54902;50.420;18.854;2023-03-03T01:18:46;101605.70;;;-0.83;67.05
55044;BME280;54902;50.420;18.854;2023-03-03T01:19:17;101567.07;;;-1.11;67.02
55044;BME280;54902;50.420;18.854;2023-03-03T01:19:48;101601.25;;;-0.84;67.05
55044;BME280;54902;50.420;18.854;2023-03-03T01:20:19;101595.94;;;-0.86;67.06
55044;BME280;54902;50.420;18.854;2023-03-03T01:20:50;101604.85;;;-0.85;67.07
55044;BME280;54902;50.420;18.854;2023-03-03T01:21:21;101595.90;;;-0.84;67.06
55044;BME280;54902;50.420;18.854;2023-03-03T01:21:52;101590.54;;;-0.84;67.08
55044;BME280;54902;50.420;18.854;2023-03-03T01:22:23;101595.90;;;-0.84;67.11
55044;BME280;54902;50.420;18.854;2023-03-03T01:22:54;101590.54;;;-0.84;67.11
55044;BME280;54902;50.420;18.854;2023-03-03T01:23:25;101598.57;;;-0.84;67.10
55044;BME280;54902;50.420;18.854;2023-03-03T01:23:55;101596.77;;;-0.84;67.13
55044;BME280;54902;50.420;18.854;2023-03-03T01:24:26;101588.71;;;-0.84;67.12
55044;BME280;54902;50.420;18.854;2023-03-03T01:24:57;101590.49;;;-0.83;67.13
55044;BME280;54902;50.420;18.854;2023-03-03T01:25:28;101587.81;;;-0.83;67.14
55044;BME280;54902;50.420;18.854;2023-03-03T01:26:00;101588.68;;;-0.82;67.12
55044;BME280;54902;50.420;18.854;2023-03-03T01:26:31;101586.00;;;-0.82;67.14
55044;BME280;54902;50.420;18.854;2023-03-03T01:27:01;101582.44;;;-0.83;67.12
55044;BME280;54902;50.420;18.854;2023-03-03T01:27:34;101584.27;;;-0.83;67.13
55044;BME280;54902;50.420;18.854;2023-03-03T01:28:05;101591.37;;;-0.82;67.12
55044;BME280;54902;50.420;18.854;2023-03-03T01:28:36;101586.90;;;-0.82;67.11
55044;BME280;54902;50.420;18.854;2023-03-03T01:29:07;101586.90;;;-0.82;67.12
55044;BME280;54902;50.420;18.854;2023-03-03T01:29:38;101588.68;;;-0.82;67.11
55044;BME280;54902;50.420;18.854;2023-03-03T01:30:10;101584.27;;;-0.83;67.11
55044;BME280;54902;50.420;18.854;2023-03-03T01:30:40;101586.90;;;-0.82;67.11
55044;BME280;54902;50.420;18.854;2023-03-03T01:31:11;101586.00;;;-0.82;67.12
55044;BME280;54902;50.420;18.854;2023-03-03T01:31:43;101584.27;;;-0.83;67.12
55044;BME280;54902;50.420;18.854;2023-03-03T01:32:14;101587.85;;;-0.84;67.13
55044;BME280;54902;50.420;18.854;2023-03-03T01:32:45;101577.13;;;-0.84;67.11
55044;BME280;54902;50.420;18.854;2023-03-03T01:33:16;101587.85;;;-0.84;67.10
55044;BME280;54902;50.420;18.854;2023-03-03T01:33:47;101584.30;;;-0.85;67.10
55044;BME280;54902;50.420;18.854;2023-03-03T01:34:18;101586.99;;;-0.86;67.10
55044;BME280;54902;50.420;18.854;2023-03-03T01:34:49;101586.08;;;-0.85;67.12
55044;BME280;54902;50.420;18.854;2023-03-03T01:35:20;101578.95;;;-0.86;67.12
55044;BME280;54902;50.420;18.854;2023-03-03T01:35:51;101579.85;;;-0.86;67.10
55044;BME280;54902;50.420;18.854;2023-03-03T01:36:26;101587.90;;;-0.86;67.11
55044;BME280;54902;50.420;18.854;2023-03-03T01:36:57;101585.25;;;-0.87;67.11
55044;BME280;54902;50.420;18.854;2023-03-03T01:37:30;101577.22;;;-0.87;67.12
55044;BME280;54902;50.420;18.854;2023-03-03T01:38:01;101586.17;;;-0.88;67.11
55044;BME280;54902;50.420;18.854;2023-03-03T01:38:35;101581.68;;;-0.88;67.11
55044;BME280;54902;50.420;18.854;2023-03-03T01:39:07;101580.81;;;-0.88;67.11
55044;BME280;54902;50.420;18.854;2023-03-03T01:39:37;101579.94;;;-0.89;67.11
55044;BME280;54902;50.420;18.854;2023-03-03T01:40:16;101575.48;;;-0.90;67.15
55044;BME280;54902;50.420;18.854;2023-03-03T01:40:53;101582.63;;;-0.90;67.17
55044;BME280;54902;50.420;18.854;2023-03-03T01:41:30;101571.91;;;-0.90;67.20
55044;BME280;54902;50.420;18.854;2023-03-03T01:42:04;101576.40;;;-0.91;67.25
55044;BME280;54902;50.420;18.854;2023-03-03T01:42:35;101583.53;;;-0.90;67.26
55044;BME280;54902;50.420;18.854;2023-03-03T01:43:06;101583.53;;;-0.90;67.30
55044;BME280;54902;50.420;18.854;2023-03-03T01:43:46;101584.39;;;-0.89;67.34
55044;BME280;54902;50.420;18.854;2023-03-03T01:44:17;101583.53;;;-0.90;67.40
55044;BME280;54902;50.420;18.854;2023-03-03T01:44:48;101578.22;;;-0.91;67.45
55044;BME280;54902;50.420;18.854;2023-03-03T01:45:28;101580.89;;;-0.91;67.48
55044;BME280;54902;50.420;18.854;2023-03-03T01:47:27;101577.31;;;-0.92;67.47
55044;BME280;54902;50.420;18.854;2023-03-03T01:48:06;101579.13;;;-0.92;67.42
55044;BME280;54902;50.420;18.854;2023-03-03T01:48:43;101582.72;;;-0.93;67.42
55044;BME280;54902;50.420;18.854;2023-03-03T01:49:21;101579.17;;;-0.94;67.40
55044;BME280;54902;50.420;18.854;2023-03-03T01:50:44;101574.66;;;-0.93;67.36
55044;BME280;54902;50.420;18.854;2023-03-03T01:51:27;101574.66;;;-0.93;67.33
55044;BME280;54902;50.420;18.854;2023-03-03T01:52:25;101575.59;;;-0.94;67.33
55044;BME280;54902;50.420;18.854;2023-03-03T01:52:46;101576.52;;;-0.95;67.29
55044;BME280;54902;50.420;18.854;2023-03-03T01:53:26;101573.84;;;-0.95;67.29
55044;BME280;54902;50.420;18.854;2023-03-03T01:54:04;101576.54;;;-0.97;67.28
55044;BME280;54902;50.420;18.854;2023-03-03T01:54:41;101575.66;;;-0.97;67.27
55044;BME280;54902;50.420;18.854;2023-03-03T01:55:19;101578.35;;;-0.97;67.25
55044;BME280;54902;50.420;18.854;2023-03-03T01:55:52;101573.89;;;-0.98;67.24
55044;BME280;54902;50.420;18.854;2023-03-03T01:56:24;101577.52;;;-0.99;67.23
55044;BME280;54902;50.420;18.854;2023-03-03T01:57:00;101575.76;;;-1.00;67.24
55044;BME280;54902;50.420;18.854;2023-03-03T01:57:37;101574.84;;;-1.01;67.23
55044;BME280;54902;50.420;18.854;2023-03-03T01:58:13;101579.34;;;-1.01;67.23
55044;BME280;54902;50.420;18.854;2023-03-03T01:58:52;101582.07;;;-1.03;67.20
55044;BME280;54902;50.420;18.854;2023-03-03T01:59:30;101578.49;;;-1.03;67.19
55044;BME280;54902;50.420;18.854;2023-03-03T02:00:04;101576.74;;;-1.04;67.18
55044;BME280;54902;50.420;18.854;2023-03-03T02:00:39;101576.80;;;-1.06;67.17
55044;BME280;54902;50.420;18.854;2023-03-03T02:01:15;101581.25;;;-1.06;67.18
55044;BME280;54902;50.420;18.854;2023-03-03T02:01:47;101574.12;;;-1.07;67.19
55044;BME280;54902;50.420;18.854;2023-03-03T02:02:19;101578.62;;;-1.08;67.19
55044;BME280;54902;50.420;18.854;2023-03-03T02:02:50;101580.43;;;-1.08;67.18
55044;BME280;54902;50.420;18.854;2023-03-03T02:03:23;101564.65;;;-1.20;67.17
55044;BME280;54902;50.420;18.854;2023-03-03T02:03:54;101580.46;;;-1.10;67.16
55044;BME280;54902;50.420;18.854;2023-03-03T02:04:25;101584.02;;;-1.09;67.15
55044;BME280;54902;50.420;18.854;2023-03-03T02:04:57;101584.05;;;-1.11;67.14
55044;BME280;54902;50.420;18.854;2023-03-03T02:05:28;101584.97;;;-1.12;67.14
55044;BME280;54902;50.420;18.854;2023-03-03T02:06:07;101578.74;;;-1.12;67.13
55044;BME280;54902;50.420;18.854;2023-03-03T02:06:43;101579.65;;;-1.13;67.10
55044;BME280;54902;50.420;18.854;2023-03-03T02:07:16;101580.55;;;-1.14;67.10
55044;BME280;54902;50.420;18.854;2023-03-03T02:07:49;101574.38;;;-1.16;67.08
55044;BME280;54902;50.420;18.854;2023-03-03T02:08:24;101579.73;;;-1.16;67.07
55044;BME280;54902;50.420;18.854;2023-03-03T02:09:03;101577.05;;;-1.17;67.12
55044;BME280;54902;50.420;18.854;2023-03-03T02:10:20;101578.04;;;-1.20;67.06
55044;BME280;54902;50.420;18.854;2023-03-03T02:10:52;101576.27;;;-1.21;67.08
55044;BME280;54902;50.420;18.854;2023-03-03T02:11:25;101567.37;;;-1.23;67.06
55044;BME280;54902;50.420;18.854;2023-03-03T02:12:04;101577.18;;;-1.22;67.05
55044;BME280;54902;50.420;18.854;2023-03-03T02:12:39;101573.68;;;-1.24;67.06
55044;BME280;54902;50.420;18.854;2023-03-03T02:13:11;101574.59;;;-1.25;67.07
55044;BME280;54902;50.420;18.854;2023-03-03T02:13:43;101573.68;;;-1.25;67.06
55044;BME280;54902;50.420;18.854;2023-03-03T02:14:14;101569.27;;;-1.28;67.07
55044;BME280;54902;50.420;18.854;2023-03-03T02:14:45;101574.63;;;-1.28;67.09
55044;BME280;54902;50.420;18.854;2023-03-03T02:15:22;101577.35;;;-1.29;67.08
55044;BME280;54902;50.420;18.854;2023-03-03T02:15:54;101580.07;;;-1.31;67.08
55044;BME280;54902;50.420;18.854;2023-03-03T02:16:26;101578.30;;;-1.32;67.10
55044;BME280;54902;50.420;18.854;2023-03-03T02:16:58;101576.57;;;-1.33;67.11
55044;BME280;54902;50.420;18.854;2023-03-03T02:17:29;101576.57;;;-1.33;67.13
55044;BME280;54902;50.420;18.854;2023-03-03T02:18:43;101580.20;;;-1.35;67.13
55044;BME280;54902;50.420;18.854;2023-03-03T02:20:05;101585.59;;;-1.37;67.14
55044;BME280;54902;50.420;18.854;2023-03-03T02:20:06;101582.01;;;-1.37;67.17
55044;BME280;54902;50.420;18.854;2023-03-03T02:21:24;101588.31;;;-1.40;67.19
55044;BME280;54902;50.420;18.854;2023-03-03T02:21:58;101581.23;;;-1.41;67.21
55044;BME280;54902;50.420;18.854;2023-03-03T02:22:39;101585.72;;;-1.43;67.18
55044;BME280;54902;50.420;18.854;2023-03-03T02:24:08;101586.67;;;-1.45;67.23
55044;BME280;54902;50.420;18.854;2023-03-03T02:24:43;101590.25;;;-1.46;67.23
55044;BME280;54902;50.420;18.854;2023-03-03T02:25:27;101590.25;;;-1.46;67.23
55044;BME280;54902;50.420;18.854;2023-03-03T02:26:04;101594.73;;;-1.47;67.25
55044;BME280;54902;50.420;18.854;2023-03-03T02:26:39;101596.59;;;-1.49;67.25
55044;BME280;54902;50.420;18.854;2023-03-03T02:27:10;101582.33;;;-1.51;67.24
55044;BME280;54902;50.420;18.854;2023-03-03T02:27:44;101591.23;;;-1.49;67.25
55044;BME280;54902;50.420;18.854;2023-03-03T02:28:15;101603.73;;;-1.49;67.25
55044;BME280;54902;50.420;18.854;2023-03-03T02:28:46;101598.41;;;-1.51;67.24
55044;BME280;54902;50.420;18.854;2023-03-03T02:29:17;101599.31;;;-1.52;67.23
55044;BME280;54902;50.420;18.854;2023-03-03T02:29:47;101598.41;;;-1.51;67.23
55044;BME280;54902;50.420;18.854;2023-03-03T02:30:20;101591.27;;;-1.52;67.24
55044;BME280;54902;50.420;18.854;2023-03-03T02:30:57;101594.87;;;-1.53;67.22
55044;BME280;54902;50.420;18.854;2023-03-03T02:31:30;101595.80;;;-1.54;67.23
55044;BME280;54902;50.420;18.854;2023-03-03T02:32:01;101589.54;;;-1.54;67.23
55044;BME280;54902;50.420;18.854;2023-03-03T02:32:32;101579.78;;;-1.55;67.24
55044;BME280;54902;50.420;18.854;2023-03-03T02:33:04;101577.97;;;-1.55;67.25
55044;BME280;54902;50.420;18.854;2023-03-03T02:33:35;101584.23;;;-1.56;67.24
55044;BME280;54902;50.420;18.854;2023-03-03T02:34:06;101593.17;;;-1.57;67.22
55044;BME280;54902;50.420;18.854;2023-03-03T02:34:47;101586.95;;;-1.57;67.23
55044;BME280;54902;50.420;18.854;2023-03-03T02:36:01;101586.12;;;-1.59;67.25
55044;BME280;54902;50.420;18.854;2023-03-03T02:36:35;101569.15;;;-1.60;67.26
55044;BME280;54902;50.420;18.854;2023-03-03T02:37:07;101583.44;;;-1.61;67.24
55044;BME280;54902;50.420;18.854;2023-03-03T02:37:38;101583.44;;;-1.61;67.25
55044;BME280;54902;50.420;18.854;2023-03-03T02:39:34;101579.07;;;-1.63;66.93
55044;BME280;54902;50.420;18.854;2023-03-03T02:40:06;101588.88;;;-1.64;67.27
55044;BME280;54902;50.420;18.854;2023-03-03T02:41:02;101586.20;;;-1.64;67.28
55044;BME280;54902;50.420;18.854;2023-03-03T02:42:11;101580.88;;;-1.65;67.29
55044;BME280;54902;50.420;18.854;2023-03-03T02:42:44;101582.69;;;-1.66;67.30
55044;BME280;54902;50.420;18.854;2023-03-03T02:43:18;101575.57;;;-1.67;67.31
55044;BME280;54902;50.420;18.854;2023-03-03T02:44:02;101570.30;;;-1.71;67.46
55044;BME280;54902;50.420;18.854;2023-03-03T02:44:33;101572.02;;;-1.69;67.31
55044;BME280;54902;50.420;18.854;2023-03-03T02:45:05;101579.15;;;-1.68;67.33
55044;BME280;54902;50.420;18.854;2023-03-03T02:45:42;101577.41;;;-1.70;67.32
55044;BME280;54902;50.420;18.854;2023-03-03T02:46:14;101575.64;;;-1.70;67.30
55044;BME280;54902;50.420;18.854;2023-03-03T02:46:46;101581.86;;;-1.69;67.31
55044;BME280;54902;50.420;18.854;2023-03-03T02:47:17;101579.18;;;-1.69;67.30
55044;BME280;54902;50.420;18.854;2023-03-03T02:47:51;101581.86;;;-1.69;67.32
55044;BME280;54902;50.420;18.854;2023-03-03T02:48:22;101586.34;;;-1.70;67.31
55044;BME280;54902;50.420;18.854;2023-03-03T02:48:53;101589.94;;;-1.71;67.35
55044;BME280;54902;50.420;18.854;2023-03-03T02:49:26;101582.77;;;-1.70;67.35
55044;BME280;54902;50.420;18.854;2023-03-03T02:49:57;101582.77;;;-1.70;67.35
55044;BME280;54902;50.420;18.854;2023-03-03T02:50:28;101583.67;;;-1.70;67.34
55044;BME280;54902;50.420;18.854;2023-03-03T02:50:59;101583.67;;;-1.70;67.34
55044;BME280;54902;50.420;18.854;2023-03-03T02:51:31;101580.98;;;-1.70;67.34
55044;BME280;54902;50.420;18.854;2023-03-03T02:52:05;101584.58;;;-1.71;67.34
55044;BME280;54902;50.420;18.854;2023-03-03T02:52:36;101581.91;;;-1.71;67.34
55044;BME280;54902;50.420;18.854;2023-03-03T02:53:07;101582.81;;;-1.72;67.34
55044;BME280;54902;50.420;18.854;2023-03-03T02:53:39;101585.45;;;-1.70;67.32
55044;BME280;54902;50.420;18.854;2023-03-03T02:54:11;101583.67;;;-1.70;67.32
55044;BME280;54902;50.420;18.854;2023-03-03T02:54:43;101583.67;;;-1.71;67.31
55044;BME280;54902;50.420;18.854;2023-03-03T02:55:14;101577.45;;;-1.72;67.31
55044;BME280;54902;50.420;18.854;2023-03-03T02:55:45;101587.30;;;-1.72;67.29
55044;BME280;54902;50.420;18.854;2023-03-03T02:56:16;101582.81;;;-1.72;67.33
55044;BME280;54902;50.420;18.854;2023-03-03T02:56:47;101586.40;;;-1.73;67.32
55044;BME280;54902;50.420;18.854;2023-03-03T02:57:18;101589.08;;;-1.73;67.34
55044;BME280;54902;50.420;18.854;2023-03-03T02:57:49;101590.01;;;-1.73;67.38
55044;BME280;54902;50.420;18.854;2023-03-03T02:58:20;101585.55;;;-1.74;67.40
55044;BME280;54902;50.420;18.854;2023-03-03T02:58:51;101594.46;;;-1.74;67.43
55044;BME280;54902;50.420;18.854;2023-03-03T02:59:22;101590.02;;;-1.75;67.45
55044;BME280;54902;50.420;18.854;2023-03-03T02:59:53;101596.27;;;-1.74;67.46
55044;BME280;54902;50.420;18.854;2023-03-03T03:00:24;101581.98;;;-1.75;67.44
55044;BME280;54902;50.420;18.854;2023-03-03T03:00:55;101591.81;;;-1.75;67.45
55044;BME280;54902;50.420;18.854;2023-03-03T03:01:26;101594.50;;;-1.75;67.45
55044;BME280;54902;50.420;18.854;2023-03-03T03:02:02;101590.96;;;-1.76;67.45
55044;BME280;54902;50.420;18.854;2023-03-03T03:02:33;101594.50;;;-1.75;67.44
55044;BME280;54902;50.420;18.854;2023-03-03T03:03:04;101592.73;;;-1.76;67.43
55044;BME280;54902;50.420;18.854;2023-03-03T03:03:35;101594.55;;;-1.77;67.43
55044;BME280;54902;50.420;18.854;2023-03-03T03:04:09;101589.19;;;-1.77;67.43
55044;BME280;54902;50.420;18.854;2023-03-03T03:04:40;101595.41;;;-1.76;67.42
55044;BME280;54902;50.420;18.854;2023-03-03T03:05:12;101593.67;;;-1.77;67.44
55044;BME280;54902;50.420;18.854;2023-03-03T03:05:42;101588.31;;;-1.79;67.43
55044;BME280;54902;50.420;18.854;2023-03-03T03:06:14;101593.67;;;-1.77;67.42
55044;BME280;54902;50.420;18.854;2023-03-03T03:06:45;101590.99;;;-1.79;67.41
55044;BME280;54902;50.420;18.854;2023-03-03T03:07:16;101589.26;;;-1.80;67.40
55044;BME280;54902;50.420;18.854;2023-03-03T03:07:47;101584.77;;;-1.79;67.39
55044;BME280;54902;50.420;18.854;2023-03-03T03:08:18;101588.35;;;-1.80;67.38
55044;BME280;54902;50.420;18.854;2023-03-03T03:08:49;101582.13;;;-1.81;67.38
55044;BME280;54902;50.420;18.854;2023-03-03T03:09:21;101580.36;;;-1.82;67.37
55044;BME280;54902;50.420;18.854;2023-03-03T03:09:52;101578.55;;;-1.81;67.36
55044;BME280;54902;50.420;18.854;2023-03-03T03:10:25;101579.50;;;-1.82;67.34
55044;BME280;54902;50.420;18.854;2023-03-03T03:10:56;101581.27;;;-1.83;67.34
55044;BME280;54902;50.420;18.854;2023-03-03T03:11:27;101582.16;;;-1.82;67.35
55044;BME280;54902;50.420;18.854;2023-03-03T03:11:58;101583.07;;;-1.83;67.35